createdAt,value
2018-01-31T01:52:20.431Z,1011.5
2018-01-31T01:52:21.006Z,1008.94
2018-01-31T01:52:21.162Z,1008.89
2018-01-31T01:52:38.610Z,1008.93
2018-01-31T01:53:19.180Z,1008.92
2018-01-31T01:53:59.703Z,1008.92
2018-01-31T01:54:40.269Z,1008.87
2018-01-31T01:55:20.816Z,1008.9
2018-01-31T01:56:01.525Z,1008.87
2018-01-31T01:56:42.073Z,1008.89
2018-01-31T01:57:22.559Z,1008.84
2018-01-31T01:58:03.152Z,1008.84
2018-01-31T01:58:43.680Z,1008.84
2018-01-31T01:59:24.168Z,1008.81
2018-01-31T02:00:04.787Z,1008.76
2018-01-31T02:00:45.370Z,1008.81
2018-01-31T02:01:25.882Z,1008.78
2018-01-31T02:02:06.426Z,1008.76
2018-01-31T02:02:47.941Z,1008.72
2018-01-31T02:03:28.468Z,1008.75
2018-01-31T02:04:08.993Z,1008.66
2018-01-31T02:04:49.551Z,1008.68
2018-01-31T02:05:30.076Z,1008.68
2018-01-31T02:06:10.725Z,1008.65
2018-01-31T02:06:51.207Z,1008.68
2018-01-31T02:07:31.770Z,1008.62
2018-01-31T02:08:12.381Z,1008.65
2018-01-31T02:08:53.005Z,1008.63
2018-01-31T02:09:33.531Z,1008.61
2018-01-31T02:10:14.035Z,1008.62
2018-01-31T02:10:54.625Z,1008.61
2018-01-31T02:11:35.122Z,1008.69
2018-01-31T02:12:15.684Z,1008.63
2018-01-31T02:12:56.242Z,1008.65
2018-01-31T02:13:36.793Z,1008.58
2018-01-31T02:14:17.360Z,1008.61
2018-01-31T02:14:57.876Z,1008.65
2018-01-31T02:15:38.457Z,1008.56
2018-01-31T02:16:19.013Z,1008.57
2018-01-31T02:16:59.535Z,1008.48
2018-01-31T02:17:40.102Z,1008.5
2018-01-31T02:18:20.592Z,1008.52
2018-01-31T02:19:01.109Z,1008.52
2018-01-31T02:19:41.665Z,1008.46
2018-01-31T02:20:22.224Z,1008.43
2018-01-31T02:21:02.798Z,1008.44
2018-01-31T02:21:43.324Z,1008.43
2018-01-31T02:22:23.821Z,1008.38
2018-01-31T02:23:04.403Z,1008.33
2018-01-31T02:23:44.920Z,1008.35
2018-01-31T02:24:25.449Z,1008.28
2018-01-31T02:25:05.979Z,1008.29
2018-01-31T02:25:46.522Z,1008.26
2018-01-31T02:26:27.105Z,1008.24
2018-01-31T02:27:07.702Z,1008.3
2018-01-31T02:27:48.293Z,1008.25
2018-01-31T02:28:28.841Z,1008.27
2018-01-31T02:29:09.493Z,1008.26
2018-01-31T02:29:49.950Z,1008.26
2018-01-31T02:30:30.482Z,1008.24
2018-01-31T02:31:11.020Z,1008.22
2018-01-31T02:31:51.525Z,1008.22
2018-01-31T02:32:32.051Z,1008.17
2018-01-31T02:33:12.646Z,1008.21
2018-01-31T02:33:53.182Z,1008.18
2018-01-31T02:34:33.682Z,1008.16
2018-01-31T02:35:14.276Z,1008.22
2018-01-31T02:35:54.815Z,1008.15
2018-01-31T02:36:35.345Z,1008.15
2018-01-31T02:37:15.891Z,1008.14
2018-01-31T02:37:56.441Z,1008.16
2018-01-31T02:38:37.030Z,1008.11
2018-01-31T02:39:17.533Z,1008.08
2018-01-31T02:39:58.034Z,1008.06
2018-01-31T02:40:38.544Z,1008.04
2018-01-31T02:41:19.741Z,1008.04
2018-01-31T02:41:59.608Z,1008.04
2018-01-31T02:42:40.156Z,1008.04
2018-01-31T02:43:20.626Z,1008.09
2018-01-31T02:44:01.199Z,1008.02
2018-01-31T02:44:41.696Z,1008
2018-01-31T02:45:22.265Z,1008.01
2018-01-31T02:46:02.776Z,1008
2018-01-31T02:46:43.320Z,1007.99
2018-01-31T02:47:23.855Z,1008
2018-01-31T02:48:04.386Z,1007.92
2018-01-31T02:48:44.927Z,1007.95
2018-01-31T02:49:25.481Z,1007.94
2018-01-31T02:50:06.014Z,1007.95
2018-01-31T02:50:46.567Z,1007.89
2018-01-31T02:51:27.082Z,1007.87
2018-01-31T02:52:07.585Z,1007.86
2018-01-31T02:52:48.120Z,1007.82
2018-01-31T02:53:28.645Z,1007.75
2018-01-31T02:54:09.228Z,1007.79
2018-01-31T02:54:49.757Z,1007.77
2018-01-31T02:55:30.339Z,1007.75
2018-01-31T02:56:10.868Z,1007.76
2018-01-31T02:56:51.360Z,1007.8
2018-01-31T02:57:31.898Z,1007.72
2018-01-31T02:58:12.406Z,1007.73
2018-01-31T02:58:52.956Z,1007.71
2018-01-31T02:59:33.498Z,1007.77
2018-01-31T03:00:14.072Z,1007.76
2018-01-31T03:00:54.589Z,1007.7
2018-01-31T03:01:35.110Z,1007.72
2018-01-31T03:02:15.646Z,1007.65
2018-01-31T03:02:56.190Z,1007.67
2018-01-31T03:03:36.724Z,1007.68
2018-01-31T03:04:17.275Z,1007.66
2018-01-31T03:04:57.812Z,1007.64
2018-01-31T03:05:38.352Z,1007.62
2018-01-31T03:06:18.886Z,1007.62
2018-01-31T03:06:59.467Z,1007.65
2018-01-31T03:07:39.973Z,1007.59
2018-01-31T03:08:20.521Z,1007.58
2018-01-31T03:09:01.011Z,1007.63
2018-01-31T03:09:41.563Z,1007.53
2018-01-31T03:10:22.156Z,1007.55
2018-01-31T03:11:02.680Z,1007.55
2018-01-31T03:11:43.247Z,1007.45
2018-01-31T03:12:23.779Z,1007.5
2018-01-31T03:13:04.269Z,1007.47
2018-01-31T03:13:44.846Z,1007.48
2018-01-31T03:14:25.359Z,1007.41
2018-01-31T03:15:05.931Z,1007.48
2018-01-31T03:15:46.463Z,1007.43
2018-01-31T03:16:27.048Z,1007.39
2018-01-31T03:17:07.527Z,1007.41
2018-01-31T03:17:48.055Z,1007.38
2018-01-31T03:18:28.591Z,1007.36
2018-01-31T03:19:09.115Z,1007.4
2018-01-31T03:19:49.664Z,1007.34
2018-01-31T03:20:30.227Z,1007.36
2018-01-31T03:21:10.775Z,1007.4
2018-01-31T03:21:51.335Z,1007.41
2018-01-31T03:22:31.888Z,1007.34
2018-01-31T03:23:12.351Z,1007.33
2018-01-31T03:23:52.937Z,1007.32
2018-01-31T03:24:33.443Z,1007.32
2018-01-31T03:25:14.006Z,1007.35
2018-01-31T03:25:54.479Z,1007.35
2018-01-31T03:26:35.016Z,1007.25
2018-01-31T03:27:15.604Z,1007.3
2018-01-31T03:27:56.086Z,1007.32
2018-01-31T03:28:36.639Z,1007.27
2018-01-31T03:29:17.175Z,1007.22
2018-01-31T03:29:57.714Z,1007.22
2018-01-31T03:30:38.251Z,1007.19
2018-01-31T03:31:18.862Z,1007.27
2018-01-31T03:31:59.378Z,1007.19
2018-01-31T03:32:39.959Z,1007.18
2018-01-31T03:33:20.492Z,1007.18
2018-01-31T03:34:01.059Z,1007.18
2018-01-31T03:34:41.576Z,1007.13
2018-01-31T03:35:22.126Z,1007.15
2018-01-31T03:36:02.843Z,1007.13
2018-01-31T03:36:43.377Z,1007.18
2018-01-31T03:37:23.957Z,1007.16
2018-01-31T03:38:04.454Z,1007.11
2018-01-31T03:38:44.999Z,1007.07
2018-01-31T03:39:25.529Z,1007.08
2018-01-31T03:40:06.115Z,1007.1
2018-01-31T03:40:46.681Z,1007.09
2018-01-31T03:41:27.214Z,1007.11
2018-01-31T03:42:07.748Z,1007.12
2018-01-31T03:42:48.337Z,1007.14
2018-01-31T03:43:28.876Z,1007.09
2018-01-31T03:44:09.401Z,1007.15
2018-01-31T03:44:49.937Z,1007.09
2018-01-31T03:45:30.484Z,1007.11
2018-01-31T03:46:11.013Z,1007.1
2018-01-31T03:46:51.541Z,1007.1
2018-01-31T03:47:32.139Z,1007.09
2018-01-31T03:48:12.648Z,1007.1
2018-01-31T03:48:53.184Z,1007.07
2018-01-31T03:49:33.707Z,1007.07
2018-01-31T03:50:14.212Z,1007.06
2018-01-31T03:50:54.784Z,1007.11
2018-01-31T03:51:35.346Z,1007.06
2018-01-31T03:52:15.845Z,1007.08
2018-01-31T03:52:56.361Z,1006.98
2018-01-31T03:53:36.884Z,1007.01
2018-01-31T03:54:17.403Z,1007.04
2018-01-31T03:54:57.944Z,1007.05
2018-01-31T03:55:38.473Z,1007
2018-01-31T03:56:18.990Z,1007.02
2018-01-31T03:56:59.520Z,1007.06
2018-01-31T03:57:40.052Z,1006.99
2018-01-31T03:58:20.595Z,1006.95
2018-01-31T03:59:01.107Z,1006.97
2018-01-31T03:59:41.629Z,1006.95
2018-01-31T04:00:22.333Z,1006.92
2018-01-31T04:01:02.772Z,1006.91
2018-01-31T04:01:43.252Z,1006.9
2018-01-31T04:02:23.888Z,1006.94
2018-01-31T04:03:04.372Z,1006.86
2018-01-31T04:03:44.896Z,1006.84
2018-01-31T04:04:25.439Z,1006.85
2018-01-31T04:05:06.035Z,1006.85
2018-01-31T04:05:46.689Z,1006.79
2018-01-31T04:06:27.204Z,1006.82
2018-01-31T04:07:07.772Z,1006.85
2018-01-31T04:07:48.338Z,1006.85
2018-01-31T04:08:28.843Z,1006.82
2018-01-31T04:09:09.391Z,1006.82
2018-01-31T04:09:49.870Z,1006.81
2018-01-31T04:10:30.511Z,1006.81
2018-01-31T04:11:11.062Z,1006.8
2018-01-31T04:11:51.563Z,1006.84
2018-01-31T04:12:32.100Z,1006.82
2018-01-31T04:13:12.717Z,1006.75
2018-01-31T04:13:53.273Z,1006.73
2018-01-31T04:14:33.780Z,1006.74
2018-01-31T04:15:14.360Z,1006.76
2018-01-31T04:15:54.902Z,1006.79
2018-01-31T04:16:35.481Z,1006.78
2018-01-31T04:17:15.914Z,1006.76
2018-01-31T04:17:56.445Z,1006.76
2018-01-31T04:18:36.979Z,1006.79
2018-01-31T04:19:17.538Z,1006.77
2018-01-31T04:19:58.069Z,1006.69
2018-01-31T04:20:38.589Z,1006.7
2018-01-31T04:21:19.137Z,1006.75
2018-01-31T04:21:59.638Z,1006.69
2018-01-31T04:22:40.153Z,1006.69
2018-01-31T04:23:20.667Z,1006.73
2018-01-31T04:24:01.244Z,1006.72
2018-01-31T04:24:41.774Z,1006.73
2018-01-31T04:25:22.305Z,1006.71
2018-01-31T04:26:02.846Z,1006.69
2018-01-31T04:26:43.349Z,1006.71
2018-01-31T04:27:23.893Z,1006.65
2018-01-31T04:28:04.402Z,1006.71
2018-01-31T04:28:44.976Z,1006.66
2018-01-31T04:29:25.484Z,1006.64
2018-01-31T04:30:05.983Z,1006.71
2018-01-31T04:30:46.519Z,1006.71
2018-01-31T04:31:27.050Z,1006.63
2018-01-31T04:32:07.590Z,1006.61
2018-01-31T04:32:48.147Z,1006.63
2018-01-31T04:33:28.684Z,1006.57
2018-01-31T04:34:09.213Z,1006.59
2018-01-31T04:34:49.776Z,1006.55
2018-01-31T04:35:30.265Z,1006.63
2018-01-31T04:36:10.860Z,1006.59
2018-01-31T04:36:51.356Z,1006.61
2018-01-31T04:37:31.884Z,1006.64
2018-01-31T04:38:12.440Z,1006.62
2018-01-31T04:38:52.970Z,1006.65
2018-01-31T04:39:33.569Z,1006.63
2018-01-31T04:40:14.020Z,1006.63
2018-01-31T04:40:54.558Z,1006.61
2018-01-31T04:41:35.095Z,1006.58
2018-01-31T04:42:15.614Z,1006.58
2018-01-31T04:42:56.195Z,1006.55
2018-01-31T04:43:36.719Z,1006.51
2018-01-31T04:44:17.269Z,1006.46
2018-01-31T04:44:57.810Z,1006.47
2018-01-31T04:45:38.315Z,1006.52
2018-01-31T04:46:18.941Z,1006.46
2018-01-31T04:46:59.497Z,1006.47
2018-01-31T04:47:40.044Z,1006.44
2018-01-31T04:48:20.590Z,1006.43
2018-01-31T04:49:01.154Z,1006.43
2018-01-31T04:49:41.722Z,1006.42
2018-01-31T04:50:22.294Z,1006.4
2018-01-31T04:51:02.908Z,1006.39
2018-01-31T04:51:43.370Z,1006.37
2018-01-31T04:52:23.919Z,1006.34
2018-01-31T04:53:04.522Z,1006.33
2018-01-31T04:53:44.986Z,1006.34
2018-01-31T04:54:25.482Z,1006.28
2018-01-31T04:55:06.015Z,1006.3
2018-01-31T04:55:46.523Z,1006.24
2018-01-31T04:56:27.074Z,1006.27
2018-01-31T04:57:07.644Z,1006.29
2018-01-31T04:57:48.163Z,1006.26
2018-01-31T04:58:28.618Z,1006.23
2018-01-31T04:59:09.150Z,1006.19
2018-01-31T04:59:49.803Z,1006.2
2018-01-31T05:00:30.333Z,1006.21
2018-01-31T05:01:10.852Z,1006.19
2018-01-31T05:01:51.389Z,1006.07
2018-01-31T05:02:31.897Z,1006.05
2018-01-31T05:03:12.409Z,1006.08
2018-01-31T05:03:53.004Z,1006.05
2018-01-31T05:04:33.493Z,1006.02
2018-01-31T05:05:14.046Z,1005.97
2018-01-31T05:05:54.566Z,1006
2018-01-31T05:06:35.083Z,1005.99
2018-01-31T05:07:15.687Z,1005.96
2018-01-31T05:07:56.236Z,1005.96
2018-01-31T05:08:36.732Z,1005.93
2018-01-31T05:09:17.287Z,1005.95
2018-01-31T05:09:57.796Z,1005.92
2018-01-31T05:10:38.454Z,1005.92
2018-01-31T05:11:19.147Z,1005.93
2018-01-31T05:11:59.697Z,1005.97
2018-01-31T05:12:40.273Z,1005.94
2018-01-31T05:13:20.830Z,1005.92
2018-01-31T05:14:01.301Z,1005.88
2018-01-31T05:14:41.850Z,1005.88
2018-01-31T05:15:22.445Z,1005.88
2018-01-31T05:16:02.951Z,1005.84
2018-01-31T05:16:43.532Z,1005.86
2018-01-31T05:17:23.993Z,1005.86
2018-01-31T05:18:04.566Z,1005.86
2018-01-31T05:18:45.081Z,1005.82
2018-01-31T05:19:25.649Z,1005.81
2018-01-31T05:20:06.178Z,1005.78
2018-01-31T05:22:39.927Z,1005.81
2018-01-31T05:23:20.481Z,1005.75
2018-01-31T05:24:01.007Z,1005.72
2018-01-31T05:24:41.548Z,1005.69
2018-01-31T05:25:22.104Z,1005.65
2018-01-31T05:26:02.683Z,1005.64
2018-01-31T05:26:43.185Z,1005.63
2018-01-31T05:27:23.684Z,1005.62
2018-01-31T05:28:04.229Z,1005.62
2018-01-31T05:28:44.736Z,1005.58
2018-01-31T05:29:27.163Z,1005.64
2018-01-31T05:30:09.140Z,1005.56
2018-01-31T05:30:50.308Z,1005.52
2018-01-31T05:31:31.851Z,1005.56
2018-01-31T05:32:12.483Z,1005.57
2018-01-31T05:32:53.208Z,1005.6
2018-01-31T05:33:35.261Z,1005.58
2018-01-31T05:34:16.004Z,1005.58
2018-01-31T05:34:58.195Z,1005.53
2018-01-31T05:35:38.736Z,1005.55
2018-01-31T05:36:19.952Z,1005.57
2018-01-31T05:37:00.569Z,1005.55
2018-01-31T05:37:42.131Z,1005.49
2018-01-31T05:38:23.863Z,1005.5
2018-01-31T05:39:04.040Z,1005.47
2018-01-31T05:39:46.175Z,1005.45
2018-01-31T05:40:28.132Z,1005.46
2018-01-31T05:41:10.003Z,1005.51
2018-01-31T05:41:50.659Z,1005.46
2018-01-31T05:42:31.491Z,1005.41
2018-01-31T05:43:11.882Z,1005.44
2018-01-31T05:43:52.416Z,1005.4
2018-01-31T05:44:32.954Z,1005.42
2018-01-31T05:45:13.632Z,1005.41
2018-01-31T05:45:54.171Z,1005.41
2018-01-31T05:46:34.916Z,1005.4
2018-01-31T05:47:15.533Z,1005.34
2018-01-31T05:47:56.100Z,1005.45
2018-01-31T05:48:36.676Z,1005.43
2018-01-31T05:49:17.169Z,1005.38
2018-01-31T05:49:57.770Z,1005.41
2018-01-31T05:50:38.954Z,1005.32
2018-01-31T05:51:21.251Z,1005.44
2018-01-31T05:52:04.137Z,1005.32
2018-01-31T05:52:45.061Z,1005.36
2018-01-31T05:53:26.261Z,1005.35
2018-01-31T05:54:06.801Z,1005.33
2018-01-31T05:54:47.972Z,1005.37
2018-01-31T05:55:28.741Z,1005.4
2018-01-31T05:56:09.328Z,1005.31
2018-01-31T05:56:50.213Z,1005.31
2018-01-31T05:57:30.637Z,1005.32
2018-01-31T05:58:11.068Z,1005.3
2018-01-31T05:58:51.739Z,1005.3
2018-01-31T05:59:32.229Z,1005.3
2018-01-31T06:00:12.924Z,1005.29
2018-01-31T06:00:54.014Z,1005.32
2018-01-31T06:01:34.143Z,1005.28
2018-01-31T06:02:15.115Z,1005.16
2018-01-31T06:02:55.428Z,1005.21
2018-01-31T06:03:36.031Z,1005.22
2018-01-31T06:04:18.092Z,1005.23
2018-01-31T06:04:59.188Z,1005.2
2018-01-31T06:05:40.039Z,1005.24
2018-01-31T06:06:20.608Z,1005.13
2018-01-31T06:07:01.018Z,1005.25
2018-01-31T06:07:41.689Z,1005.15
2018-01-31T06:08:22.170Z,1005.17
2018-01-31T06:09:03.404Z,1005.16
2018-01-31T06:09:44.009Z,1005.18
2018-01-31T06:10:24.656Z,1005.11
2018-01-31T06:11:05.364Z,1005.14
2018-01-31T06:11:45.915Z,1005.15
2018-01-31T06:12:28.626Z,1005.07
2018-01-31T06:13:09.823Z,1005.09
2018-01-31T06:13:50.967Z,1005.06
2018-01-31T06:14:31.427Z,1005.12
2018-01-31T06:15:12.059Z,1005.09
2018-01-31T06:15:53.217Z,1005.08
2018-01-31T06:16:34.048Z,1005.1
2018-01-31T06:17:14.807Z,1005.02
2018-01-31T06:17:55.484Z,1005.05
2018-01-31T06:18:36.279Z,1005.06
2018-01-31T06:19:18.684Z,1005.07
2018-01-31T06:19:59.034Z,1005.03
2018-01-31T06:20:39.598Z,1005.1
2018-01-31T06:21:20.190Z,1005.06
2018-01-31T06:22:00.871Z,1004.97
2018-01-31T06:22:41.408Z,1005.11
2018-01-31T06:23:22.121Z,1005.04
2018-01-31T06:24:02.514Z,1005.07
2018-01-31T06:24:43.081Z,1005.05
2018-01-31T06:25:23.574Z,1005.03
2018-01-31T06:26:04.110Z,1004.96
2018-01-31T06:26:44.611Z,1004.99
2018-01-31T06:27:25.222Z,1005.02
2018-01-31T06:28:05.781Z,1005.03
2018-01-31T06:28:46.341Z,1005
2018-01-31T06:29:26.832Z,1005
2018-01-31T06:30:07.356Z,1005.01
2018-01-31T06:30:47.908Z,1004.95
2018-01-31T06:31:28.461Z,1005.03
2018-01-31T06:32:08.954Z,1004.94
2018-01-31T06:32:49.476Z,1004.98
2018-01-31T06:33:30.039Z,1004.95
2018-01-31T06:34:10.616Z,1004.93
2018-01-31T06:34:51.139Z,1004.93
2018-01-31T06:35:31.696Z,1004.93
2018-01-31T06:36:12.247Z,1004.9
2018-01-31T06:36:52.798Z,1004.86
2018-01-31T06:37:33.369Z,1004.85
2018-01-31T06:38:13.911Z,1004.81
2018-01-31T06:38:54.648Z,1004.93
2018-01-31T06:39:35.206Z,1004.83
2018-01-31T06:40:15.827Z,1004.81
2018-01-31T06:40:56.321Z,1004.84
2018-01-31T06:41:36.852Z,1004.83
2018-01-31T06:42:17.401Z,1004.85
2018-01-31T06:42:57.967Z,1004.84
2018-01-31T06:43:38.519Z,1004.79
2018-01-31T06:44:19.111Z,1004.82
2018-01-31T06:44:59.655Z,1004.79
2018-01-31T06:45:40.179Z,1004.82
2018-01-31T06:46:20.688Z,1004.78
2018-01-31T06:47:01.241Z,1004.8
2018-01-31T06:47:41.866Z,1004.75
2018-01-31T06:48:22.329Z,1004.78
2018-01-31T06:49:02.977Z,1004.75
2018-01-31T06:49:43.397Z,1004.75
2018-01-31T06:50:23.965Z,1004.75
2018-01-31T06:51:04.522Z,1004.77
2018-01-31T06:51:45.045Z,1004.75
2018-01-31T06:52:26.218Z,1004.71
2018-01-31T06:53:06.728Z,1004.69
2018-01-31T06:53:47.284Z,1004.67
2018-01-31T06:54:27.830Z,1004.72
2018-01-31T06:55:08.387Z,1004.62
2018-01-31T06:55:48.959Z,1004.63
2018-01-31T06:56:29.464Z,1004.66
2018-01-31T06:57:10.013Z,1004.65
2018-01-31T06:57:50.635Z,1004.65
2018-01-31T06:58:31.660Z,1004.6
2018-01-31T06:59:12.271Z,1004.62
2018-01-31T06:59:52.837Z,1004.67
2018-01-31T07:00:33.311Z,1004.65
2018-01-31T07:01:13.934Z,1004.61
2018-01-31T07:01:54.555Z,1004.66
2018-01-31T07:02:35.154Z,1004.61
2018-01-31T07:03:15.692Z,1004.65
2018-01-31T07:03:56.249Z,1004.58
2018-01-31T07:04:36.765Z,1004.61
2018-01-31T07:05:18.081Z,1004.53
2018-01-31T07:05:58.592Z,1004.47
2018-01-31T07:06:39.083Z,1004.45
2018-01-31T07:07:19.659Z,1004.45
2018-01-31T07:08:00.190Z,1004.5
2018-01-31T07:08:40.806Z,1004.41
2018-01-31T07:09:21.326Z,1004.43
2018-01-31T07:10:01.871Z,1004.46
2018-01-31T07:10:42.443Z,1004.42
2018-01-31T07:11:23.235Z,1004.44
2018-01-31T07:12:03.770Z,1004.44
2018-01-31T07:12:44.371Z,1004.39
2018-01-31T07:13:24.885Z,1004.44
2018-01-31T07:14:05.442Z,1004.37
2018-01-31T07:14:46.004Z,1004.42
2018-01-31T07:15:26.567Z,1004.37
2018-01-31T07:16:07.128Z,1004.35
2018-01-31T07:16:50.189Z,1004.44
2018-01-31T07:17:28.981Z,1004.36
2018-01-31T07:18:10.135Z,1004.32
2018-01-31T07:18:51.237Z,1004.3
2018-01-31T07:19:31.860Z,1004.31
2018-01-31T07:20:12.961Z,1004.24
2018-01-31T07:20:53.741Z,1004.24
2018-01-31T07:21:35.583Z,1004.26
2018-01-31T07:23:36.851Z,1004.24
2018-01-31T07:24:17.402Z,1004.19
2018-01-31T07:24:57.956Z,1004.2
2018-01-31T07:25:38.552Z,1004.18
2018-01-31T07:26:19.097Z,1004.17
2018-01-31T07:26:59.614Z,1004.18
2018-01-31T07:27:40.176Z,1004.11
2018-01-31T07:28:20.667Z,1004.19
2018-01-31T07:29:01.183Z,1004.14
2018-01-31T07:29:41.725Z,1004.14
2018-01-31T07:30:22.267Z,1004.08
2018-01-31T07:31:02.878Z,1004.12
2018-01-31T07:31:43.389Z,1004.1
2018-01-31T07:32:23.891Z,1004.11
2018-01-31T07:33:04.472Z,1004.12
2018-01-31T07:33:44.983Z,1003.98
2018-01-31T07:34:25.511Z,1004.06
2018-01-31T07:35:06.157Z,1004.02
2018-01-31T07:35:46.597Z,1003.99
2018-01-31T07:36:27.341Z,1004
2018-01-31T07:37:07.706Z,1004.02
2018-01-31T07:37:48.283Z,1003.94
2018-01-31T07:38:28.921Z,1004
2018-01-31T07:39:09.498Z,1003.97
2018-01-31T07:39:50.023Z,1003.96
2018-01-31T07:40:30.731Z,1003.94
2018-01-31T07:41:11.295Z,1003.97
2018-01-31T07:41:51.887Z,1003.92
2018-01-31T07:42:32.432Z,1003.89
2018-01-31T07:43:13.015Z,1003.88
2018-01-31T07:43:53.514Z,1003.87
2018-01-31T07:44:34.061Z,1003.85
2018-01-31T07:45:14.731Z,1003.79
2018-01-31T07:45:55.134Z,1003.8
2018-01-31T07:46:35.689Z,1003.88
2018-01-31T07:47:16.279Z,1003.78
2018-01-31T07:47:56.897Z,1003.85
2018-01-31T07:48:37.397Z,1003.78
2018-01-31T07:49:17.928Z,1003.79
2018-01-31T07:49:58.460Z,1003.81
2018-01-31T07:50:39.092Z,1003.78
2018-01-31T07:51:19.654Z,1003.79
2018-01-31T07:52:00.254Z,1003.78
2018-01-31T07:52:40.797Z,1003.81
2018-01-31T07:53:21.352Z,1003.78
2018-01-31T07:54:01.866Z,1003.89
2018-01-31T07:54:42.344Z,1003.78
2018-01-31T07:55:22.898Z,1003.81
2018-01-31T07:56:03.444Z,1003.79
2018-01-31T07:56:44.013Z,1003.77
2018-01-31T07:57:24.534Z,1003.8
2018-01-31T07:58:05.048Z,1003.85
2018-01-31T07:58:45.567Z,1003.86
2018-01-31T07:59:26.154Z,1003.87
2018-01-31T08:00:06.798Z,1003.86
2018-01-31T08:00:47.328Z,1003.83
2018-01-31T08:01:27.867Z,1003.82
2018-01-31T08:02:08.423Z,1003.84
2018-01-31T08:02:48.960Z,1003.88
2018-01-31T08:03:29.513Z,1003.83
2018-01-31T08:04:10.087Z,1003.91
2018-01-31T08:04:50.577Z,1003.8
2018-01-31T08:05:31.107Z,1003.82
2018-01-31T08:06:11.618Z,1003.74
2018-01-31T08:06:52.166Z,1003.79
2018-01-31T08:07:32.712Z,1003.77
2018-01-31T08:08:13.213Z,1003.8
2018-01-31T08:08:53.767Z,1003.78
2018-01-31T08:09:34.316Z,1003.79
2018-01-31T08:10:14.891Z,1003.71
2018-01-31T08:10:55.524Z,1003.72
2018-01-31T08:11:36.014Z,1003.68
2018-01-31T08:12:16.572Z,1003.66
2018-01-31T08:12:57.100Z,1003.73
2018-01-31T08:13:37.676Z,1003.72
2018-01-31T08:14:18.255Z,1003.69
2018-01-31T08:14:58.802Z,1003.64
2018-01-31T08:15:39.352Z,1003.65
2018-01-31T08:16:19.879Z,1003.67
2018-01-31T08:17:00.433Z,1003.7
2018-01-31T08:17:40.982Z,1003.73
2018-01-31T08:18:21.561Z,1003.73
2018-01-31T08:19:02.102Z,1003.68
2018-01-31T08:19:42.673Z,1003.72
2018-01-31T08:20:23.201Z,1003.7
2018-01-31T08:21:03.789Z,1003.7
2018-01-31T08:21:44.340Z,1003.67
2018-01-31T08:22:24.844Z,1003.65
2018-01-31T08:23:05.400Z,1003.7
2018-01-31T08:23:45.943Z,1003.64
2018-01-31T08:24:26.505Z,1003.67
2018-01-31T08:25:07.069Z,1003.68
2018-01-31T08:25:47.635Z,1003.66
2018-01-31T08:26:28.187Z,1003.68
2018-01-31T08:27:08.698Z,1003.7
2018-01-31T08:27:49.201Z,1003.72
2018-01-31T08:28:29.734Z,1003.68
2018-01-31T08:29:10.283Z,1003.65
2018-01-31T08:29:50.815Z,1003.69
2018-01-31T08:30:31.356Z,1003.64
2018-01-31T08:31:11.938Z,1003.65
2018-01-31T08:31:52.431Z,1003.59
2018-01-31T08:32:32.962Z,1003.66
2018-01-31T08:33:13.496Z,1003.6
2018-01-31T08:33:54.049Z,1003.61
2018-01-31T08:34:34.626Z,1003.62
2018-01-31T08:35:15.145Z,1003.58
2018-01-31T08:35:55.687Z,1003.56
2018-01-31T08:36:36.212Z,1003.56
2018-01-31T08:37:16.762Z,1003.53
2018-01-31T08:37:57.218Z,1003.49
2018-01-31T08:38:37.756Z,1003.49
2018-01-31T08:39:18.296Z,1003.51
2018-01-31T08:39:58.872Z,1003.44
2018-01-31T08:40:39.414Z,1003.44
2018-01-31T08:41:19.966Z,1003.42
2018-01-31T08:42:00.461Z,1003.43
2018-01-31T08:42:40.965Z,1003.31
2018-01-31T08:43:21.560Z,1003.36
2018-01-31T08:44:02.109Z,1003.32
2018-01-31T08:44:42.609Z,1003.32
2018-01-31T08:45:23.173Z,1003.29
2018-01-31T08:46:03.694Z,1003.27
2018-01-31T08:46:44.279Z,1003.28
2018-01-31T08:47:24.840Z,1003.24
2018-01-31T08:48:05.373Z,1003.24
2018-01-31T08:48:45.870Z,1003.16
2018-01-31T08:49:26.416Z,1003.2
2018-01-31T08:50:07.008Z,1003.12
2018-01-31T08:50:47.546Z,1003.07
2018-01-31T08:51:28.072Z,1003.1
2018-01-31T08:52:08.616Z,1003.14
2018-01-31T08:52:49.135Z,1003.09
2018-01-31T08:53:29.760Z,1003.06
2018-01-31T08:54:10.299Z,1003.01
2018-01-31T08:54:50.834Z,1003.04
2018-01-31T08:55:31.404Z,1003.02
2018-01-31T08:56:11.950Z,1003.02
2018-01-31T08:56:52.469Z,1002.98
2018-01-31T08:57:33.036Z,1003.05
2018-01-31T08:58:13.591Z,1003.03
2018-01-31T08:58:54.165Z,1003
2018-01-31T08:59:34.710Z,1003.06
2018-01-31T09:00:15.258Z,1003.02
2018-01-31T09:00:55.788Z,1003.01
2018-01-31T09:01:36.381Z,1003.06
2018-01-31T09:02:16.906Z,1003.01
2018-01-31T09:02:57.395Z,1003.12
2018-01-31T09:03:37.955Z,1003.03
2018-01-31T09:04:18.536Z,1003.07
2018-01-31T09:04:59.048Z,1003.02
2018-01-31T09:05:39.630Z,1002.97
2018-01-31T09:06:20.204Z,1003.01
2018-01-31T09:07:00.730Z,1003.07
2018-01-31T09:07:41.258Z,1002.97
2018-01-31T09:08:21.808Z,1002.97
2018-01-31T09:09:02.377Z,1002.9
2018-01-31T09:09:42.912Z,1002.86
2018-01-31T09:10:23.486Z,1002.9
2018-01-31T09:11:04.058Z,1002.88
2018-01-31T09:11:44.529Z,1002.88
2018-01-31T09:12:25.075Z,1002.87
2018-01-31T09:13:05.644Z,1002.82
2018-01-31T09:13:46.181Z,1002.86
2018-01-31T09:14:26.741Z,1002.84
2018-01-31T09:15:07.306Z,1002.85
2018-01-31T09:15:47.857Z,1002.85
2018-01-31T09:16:28.373Z,1002.87
2018-01-31T09:17:08.904Z,1002.85
2018-01-31T09:17:49.441Z,1002.84
2018-01-31T09:18:29.951Z,1002.78
2018-01-31T09:19:10.502Z,1002.84
2018-01-31T09:19:51.080Z,1002.77
2018-01-31T09:20:31.610Z,1002.79
2018-01-31T09:21:12.143Z,1002.77
2018-01-31T09:21:52.689Z,1002.73
2018-01-31T09:22:33.212Z,1002.67
2018-01-31T09:23:13.745Z,1002.7
2018-01-31T09:23:54.284Z,1002.68
2018-01-31T09:24:34.828Z,1002.68
2018-01-31T09:25:15.329Z,1002.68
2018-01-31T09:25:55.870Z,1002.72
2018-01-31T09:26:36.440Z,1002.69
2018-01-31T09:27:17.010Z,1002.64
2018-01-31T09:27:57.563Z,1002.65
2018-01-31T09:28:38.140Z,1002.65
2018-01-31T09:29:18.722Z,1002.65
2018-01-31T09:29:59.278Z,1002.72
2018-01-31T09:30:39.804Z,1002.65
2018-01-31T09:31:20.398Z,1002.69
2018-01-31T09:32:00.901Z,1002.69
2018-01-31T09:32:41.448Z,1002.72
2018-01-31T09:33:21.948Z,1002.74
2018-01-31T09:34:02.489Z,1002.7
2018-01-31T09:34:43.029Z,1002.68
2018-01-31T09:35:23.586Z,1002.72
2018-01-31T09:36:04.121Z,1002.74
2018-01-31T09:36:44.652Z,1002.69
2018-01-31T09:37:25.191Z,1002.69
2018-01-31T09:38:05.754Z,1002.64
2018-01-31T09:38:46.326Z,1002.76
2018-01-31T09:39:26.853Z,1002.67
2018-01-31T09:40:07.446Z,1002.7
2018-01-31T09:40:47.920Z,1002.72
2018-01-31T09:41:28.479Z,1002.72
2018-01-31T09:42:09.021Z,1002.74
2018-01-31T09:42:49.590Z,1002.73
2018-01-31T09:43:30.227Z,1002.79
2018-01-31T09:44:10.740Z,1002.77
2018-01-31T09:44:51.266Z,1002.85
2018-01-31T09:45:31.767Z,1002.78
2018-01-31T09:46:12.502Z,1002.79
2018-01-31T09:46:53.021Z,1002.75
2018-01-31T09:47:33.584Z,1002.72
2018-01-31T09:48:14.115Z,1002.75
2018-01-31T09:48:54.669Z,1002.74
2018-01-31T09:49:35.194Z,1002.73
2018-01-31T09:50:15.810Z,1002.76
2018-01-31T09:50:56.340Z,1002.75
2018-01-31T09:51:36.867Z,1002.74
2018-01-31T09:52:17.808Z,1002.73
2018-01-31T09:52:57.995Z,1002.66
2018-01-31T09:53:38.570Z,1002.74
2018-01-31T09:54:19.083Z,1002.65
2018-01-31T09:54:59.592Z,1002.74
2018-01-31T09:55:40.122Z,1002.67
2018-01-31T09:56:20.749Z,1002.71
2018-01-31T09:57:01.268Z,1002.67
2018-01-31T09:57:41.808Z,1002.66
2018-01-31T09:58:22.375Z,1002.68
2018-01-31T09:59:02.896Z,1002.72
2018-01-31T09:59:43.436Z,1002.66
2018-01-31T10:00:23.982Z,1002.7
2018-01-31T10:01:04.544Z,1002.71
2018-01-31T10:01:45.077Z,1002.73
2018-01-31T10:02:25.598Z,1002.71
2018-01-31T10:03:06.134Z,1002.64
2018-01-31T10:03:46.718Z,1002.6
2018-01-31T10:04:27.253Z,1002.64
2018-01-31T10:05:07.743Z,1002.63
2018-01-31T10:05:48.318Z,1002.56
2018-01-31T10:06:28.799Z,1002.53